sensor_id;sensor_type;location;lat;lon;timestamp;P1;P2;P0
27143;PMS1003;14672;50.250;8.312;2023-11-19T00:00:47;9.67;9.67;3.00
27143;PMS1003;14672;50.250;8.312;2023-11-19T00:03:12;13.33;10.00;3.00
27143;PMS1003;14672;50.250;8.312;2023-11-19T00:05:38;13.33;12.00;5.00
27143;PMS1003;14672;50.250;8.312;2023-11-19T00:08:04;13.00;11.50;3.50
27143;PMS1003;14672;50.250;8.312;2023-11-19T00:10:31;15.25;13.00;5.00
27143;PMS1003;14672;50.250;8.312;2023-11-19T00:12:57;12.67;11.33;5.00
27143;PMS1003;14672;50.250;8.312;2023-11-19T00:15:23;12.00;12.00;5.00
27143;PMS1003;14672;50.250;8.312;2023-11-19T00:17:49;14.00;14.00;5.00
27143;PMS1003;14672;50.250;8.312;2023-11-19T00:20:16;18.25;15.00;5.00
27143;PMS1003;14672;50.250;8.312;2023-11-19T00:22:43;15.25;13.25;3.50
27143;PMS1003;14672;50.250;8.312;2023-11-19T00:25:11;14.00;12.00;3.00
27143;PMS1003;14672;50.250;8.312;2023-11-19T00:27:37;11.33;10.67;5.00
27143;PMS1003;14672;50.250;8.312;2023-11-19T00:30:03;12.67;11.33;5.00
27143;PMS1003;14672;50.250;8.312;2023-11-19T00:32:34;13.50;12.00;6.00
27143;PMS1003;14672;50.250;8.312;2023-11-19T00:35:01;11.25;10.25;4.00
27143;PMS1003;14672;50.250;8.312;2023-11-19T00:37:29;11.50;11.50;3.00
27143;PMS1003;14672;50.250;8.312;2023-11-19T00:39:55;12.00;12.00;3.00
27143;PMS1003;14672;50.250;8.312;2023-11-19T00:42:21;12.00;12.00;3.50
27143;PMS1003;14672;50.250;8.312;2023-11-19T00:44:49;10.75;10.25;3.00
27143;PMS1003;14672;50.250;8.312;2023-11-19T00:47:15;13.00;13.00;6.00
27143;PMS1003;14672;50.250;8.312;2023-11-19T00:49:41;12.00;12.00;5.00
27143;PMS1003;14672;50.250;8.312;2023-11-19T00:52:07;14.25;13.50;4.50
27143;PMS1003;14672;50.250;8.312;2023-11-19T00:54:33;11.33;11.33;5.00
27143;PMS1003;14672;50.250;8.312;2023-11-19T00:56:59;13.33;12.00;5.00
27143;PMS1003;14672;50.250;8.312;2023-11-19T00:59:26;12.00;10.00;3.00
27143;PMS1003;14672;50.250;8.312;2023-11-19T01:01:53;12.50;12.00;5.00
27143;PMS1003;14672;50.250;8.312;2023-11-19T01:04:20;11.00;11.00;4.50
27143;PMS1003;14672;50.250;8.312;2023-11-19T01:06:45;16.33;14.00;4.33
27143;PMS1003;14672;50.250;8.312;2023-11-19T01:09:11;12.00;10.67;5.00
27143;PMS1003;14672;50.250;8.312;2023-11-19T01:11:37;13.33;12.00;3.00
27143;PMS1003;14672;50.250;8.312;2023-11-19T01:14:03;11.67;11.67;5.00
27143;PMS1003;14672;50.250;8.312;2023-11-19T01:16:28;10.33;10.33;3.00
27143;PMS1003;14672;50.250;8.312;2023-11-19T01:18:55;9.50;9.50;3.00
27143;PMS1003;14672;50.250;8.312;2023-11-19T01:21:21;15.50;15.50;5.00
27143;PMS1003;14672;50.250;8.312;2023-11-19T01:23:48;9.75;9.75;3.50
27143;PMS1003;14672;50.250;8.312;2023-11-19T01:26:14;16.00;16.00;5.67
27143;PMS1003;14672;50.250;8.312;2023-11-19T01:28:40;16.00;14.00;5.00
27143;PMS1003;14672;50.250;8.312;2023-11-19T01:31:10;17.50;15.75;7.00
27143;PMS1003;14672;50.250;8.312;2023-11-19T01:33:38;16.50;15.00;6.00
27143;PMS1003;14672;50.250;8.312;2023-11-19T01:36:05;17.50;14.50;5.00
27143;PMS1003;14672;50.250;8.312;2023-11-19T01:38:32;17.00;15.75;7.00
27143;PMS1003;14672;50.250;8.312;2023-11-19T01:40:59;14.00;14.00;7.00
27143;PMS1003;14672;50.250;8.312;2023-11-19T01:43:35;14.75;14.25;5.00
27143;PMS1003;14672;50.250;8.312;2023-11-19T01:46:04;14.00;14.00;5.50
27143;PMS1003;14672;50.250;8.312;2023-11-19T01:48:32;16.00;15.75;5.50
27143;PMS1003;14672;50.250;8.312;2023-11-19T01:51:01;16.75;14.75;5.00
27143;PMS1003;14672;50.250;8.312;2023-11-19T01:53:27;16.00;14.00;5.00
27143;PMS1003;14672;50.250;8.312;2023-11-19T01:55:54;15.75;12.00;4.00
27143;PMS1003;14672;50.250;8.312;2023-11-19T01:58:21;15.75;14.75;5.00
27143;PMS1003;14672;50.250;8.312;2023-11-19T02:00:48;14.75;14.25;6.00
27143;PMS1003;14672;50.250;8.312;2023-11-19T02:03:14;14.67;13.33;5.00
27143;PMS1003;14672;50.250;8.312;2023-11-19T02:05:41;15.75;14.75;7.00
27143;PMS1003;14672;50.250;8.312;2023-11-19T02:08:10;17.00;16.25;6.50
27143;PMS1003;14672;50.250;8.312;2023-11-19T02:10:38;15.75;14.00;7.00
27143;PMS1003;14672;50.250;8.312;2023-11-19T02:13:04;18.00;16.00;7.67
27143;PMS1003;14672;50.250;8.312;2023-11-19T02:15:31;17.25;15.00;5.00
27143;PMS1003;14672;50.250;8.312;2023-11-19T02:18:17;12.00;12.00;5.00
27143;PMS1003;14672;50.250;8.312;2023-11-19T02:20:53;13.50;12.00;4.50
27143;PMS1003;14672;50.250;8.312;2023-11-19T02:23:23;9.50;9.00;3.00
27143;PMS1003;14672;50.250;8.312;2023-11-19T02:25:58;10.00;10.00;3.00
27143;PMS1003;14672;50.250;8.312;2023-11-19T02:28:39;9.50;8.75;3.00
27143;PMS1003;14672;50.250;8.312;2023-11-19T02:31:07;12.50;12.00;5.00
27143;PMS1003;14672;50.250;8.312;2023-11-19T02:33:38;11.50;11.50;3.00
27143;PMS1003;14672;50.250;8.312;2023-11-19T02:36:05;11.50;10.00;3.00
27143;PMS1003;14672;50.250;8.312;2023-11-19T02:38:36;10.00;10.00;3.00
27143;PMS1003;14672;50.250;8.312;2023-11-19T02:41:05;8.00;8.00;3.00
27143;PMS1003;14672;50.250;8.312;2023-11-19T02:43:32;9.50;8.00;3.00
27143;PMS1003;14672;50.250;8.312;2023-11-19T02:46:02;9.50;8.00;2.50
27143;PMS1003;14672;50.250;8.312;2023-11-19T02:48:32;7.50;6.75;1.50
27143;PMS1003;14672;50.250;8.312;2023-11-19T02:51:06;7.50;7.50;2.00
27143;PMS1003;14672;50.250;8.312;2023-11-19T02:53:34;8.25;8.25;2.50
27143;PMS1003;14672;50.250;8.312;2023-11-19T02:56:00;9.75;9.75;3.00
27143;PMS1003;14672;50.250;8.312;2023-11-19T02:58:31;8.00;6.75;1.00
27143;PMS1003;14672;50.250;8.312;2023-11-19T03:00:57;8.00;7.50;2.50
27143;PMS1003;14672;50.250;8.312;2023-11-19T03:03:24;8.00;8.00;2.00
27143;PMS1003;14672;50.250;8.312;2023-11-19T03:05:56;6.75;6.75;1.00
27143;PMS1003;14672;50.250;8.312;2023-11-19T03:08:22;6.75;6.75;1.00
27143;PMS1003;14672;50.250;8.312;2023-11-19T03:10:48;6.50;6.50;1.00
27143;PMS1003;14672;50.250;8.312;2023-11-19T03:13:14;6.67;6.67;1.00
27143;PMS1003;14672;50.250;8.312;2023-11-19T03:15:40;6.50;5.00;1.00
27143;PMS1003;14672;50.250;8.312;2023-11-19T03:18:07;8.50;6.75;1.00
27143;PMS1003;14672;50.250;8.312;2023-11-19T03:20:33;6.50;6.50;1.00
27143;PMS1003;14672;50.250;8.312;2023-11-19T03:22:58;7.00;7.00;1.00
27143;PMS1003;14672;50.250;8.312;2023-11-19T03:25:26;8.00;8.00;1.50
27143;PMS1003;14672;50.250;8.312;2023-11-19T03:27:58;8.00;8.00;1.00
27143;PMS1003;14672;50.250;8.312;2023-11-19T03:30:26;7.25;7.25;3.00
27143;PMS1003;14672;50.250;8.312;2023-11-19T03:32:53;6.00;6.00;1.00
27143;PMS1003;14672;50.250;8.312;2023-11-19T03:35:26;6.50;6.50;1.00
27143;PMS1003;14672;50.250;8.312;2023-11-19T03:37:53;6.75;6.75;1.00
27143;PMS1003;14672;50.250;8.312;2023-11-19T03:40:18;7.00;7.00;0.00
27143;PMS1003;14672;50.250;8.312;2023-11-19T03:42:47;7.00;7.00;1.00
27143;PMS1003;14672;50.250;8.312;2023-11-19T03:45:13;5.00;5.00;0.75
27143;PMS1003;14672;50.250;8.312;2023-11-19T03:47:40;3.50;3.50;0.00
27143;PMS1003;14672;50.250;8.312;2023-11-19T03:50:06;5.00;5.00;1.00
27143;PMS1003;14672;50.250;8.312;2023-11-19T03:52:33;5.00;5.00;0.00
27143;PMS1003;14672;50.250;8.312;2023-11-19T03:55:00;5.00;5.00;0.75
27143;PMS1003;14672;50.250;8.312;2023-11-19T03:57:26;5.00;5.00;0.00
27143;PMS1003;14672;50.250;8.312;2023-11-19T03:59:53;5.00;5.00;0.00
27143;PMS1003;14672;50.250;8.312;2023-11-19T04:02:20;5.25;5.25;0.75
27143;PMS1003;14672;50.250;8.312;2023-11-19T04:04:46;5.00;5.00;0.00
27143;PMS1003;14672;50.250;8.312;2023-11-19T04:07:15;5.75;5.00;0.00
27143;PMS1003;14672;50.250;8.312;2023-11-19T04:09:40;5.00;5.00;0.00
27143;PMS1003;14672;50.250;8.312;2023-11-19T04:12:06;6.00;5.00;0.33
27143;PMS1003;14672;50.250;8.312;2023-11-19T04:14:33;5.00;5.00;0.25
27143;PMS1003;14672;50.250;8.312;2023-11-19T04:16:58;5.00;5.00;0.00
27143;PMS1003;14672;50.250;8.312;2023-11-19T04:19:24;3.00;3.00;0.00
27143;PMS1003;14672;50.250;8.312;2023-11-19T04:21:50;3.00;3.00;0.00
27143;PMS1003;14672;50.250;8.312;2023-11-19T04:24:17;8.00;7.50;1.00
27143;PMS1003;14672;50.250;8.312;2023-11-19T04:26:43;5.00;5.00;0.00
27143;PMS1003;14672;50.250;8.312;2023-11-19T04:29:11;5.00;5.00;0.00
27143;PMS1003;14672;50.250;8.312;2023-11-19T04:31:38;4.00;4.00;0.00
27143;PMS1003;14672;50.250;8.312;2023-11-19T04:34:07;5.00;5.00;0.00
27143;PMS1003;14672;50.250;8.312;2023-11-19T04:36:33;3.00;3.00;0.00
27143;PMS1003;14672;50.250;8.312;2023-11-19T04:39:00;4.00;4.00;0.00
27143;PMS1003;14672;50.250;8.312;2023-11-19T04:41:26;3.00;3.00;0.00
27143;PMS1003;14672;50.250;8.312;2023-11-19T04:43:58;4.50;4.50;0.00
27143;PMS1003;14672;50.250;8.312;2023-11-19T04:46:23;4.33;3.67;0.00
27143;PMS1003;14672;50.250;8.312;2023-11-19T04:48:49;5.00;5.00;0.00
27143;PMS1003;14672;50.250;8.312;2023-11-19T04:51:15;4.50;4.50;0.25
27143;PMS1003;14672;50.250;8.312;2023-11-19T04:53:41;5.00;5.00;0.00
27143;PMS1003;14672;50.250;8.312;2023-11-19T04:56:08;3.00;3.00;0.00
27143;PMS1003;14672;50.250;8.312;2023-11-19T04:58:35;3.50;3.50;0.00
27143;PMS1003;14672;50.250;8.312;2023-11-19T05:01:02;4.00;4.00;0.00
27143;PMS1003;14672;50.250;8.312;2023-11-19T05:03:31;3.50;3.50;0.00
27143;PMS1003;14672;50.250;8.312;2023-11-19T05:05:57;3.50;3.50;0.00
27143;PMS1003;14672;50.250;8.312;2023-11-19T05:08:24;5.00;5.00;0.00
27143;PMS1003;14672;50.250;8.312;2023-11-19T05:10:50;3.00;3.00;0.00
27143;PMS1003;14672;50.250;8.312;2023-11-19T05:13:16;3.00;3.00;0.00
27143;PMS1003;14672;50.250;8.312;2023-11-19T05:15:42;3.00;3.00;0.00
27143;PMS1003;14672;50.250;8.312;2023-11-19T05:18:08;3.00;3.00;0.00
27143;PMS1003;14672;50.250;8.312;2023-11-19T05:20:34;3.00;3.00;0.00
27143;PMS1003;14672;50.250;8.312;2023-11-19T05:23:02;3.00;3.00;0.00
27143;PMS1003;14672;50.250;8.312;2023-11-19T05:25:28;3.00;3.00;0.00
27143;PMS1003;14672;50.250;8.312;2023-11-19T05:27:53;3.00;3.00;0.00
27143;PMS1003;14672;50.250;8.312;2023-11-19T05:30:19;5.00;5.00;0.00
27143;PMS1003;14672;50.250;8.312;2023-11-19T05:32:45;3.00;3.00;0.00
27143;PMS1003;14672;50.250;8.312;2023-11-19T05:35:11;3.00;3.00;0.00
27143;PMS1003;14672;50.250;8.312;2023-11-19T05:37:37;3.00;3.00;0.00
27143;PMS1003;14672;50.250;8.312;2023-11-19T05:40:03;5.00;5.00;0.00
27143;PMS1003;14672;50.250;8.312;2023-11-19T05:42:39;3.00;3.00;0.00
27143;PMS1003;14672;50.250;8.312;2023-11-19T05:45:06;5.75;5.00;0.00
27143;PMS1003;14672;50.250;8.312;2023-11-19T05:47:33;5.75;5.00;0.00
27143;PMS1003;14672;50.250;8.312;2023-11-19T05:49:59;5.00;5.00;0.00
27143;PMS1003;14672;50.250;8.312;2023-11-19T05:52:25;5.00;3.00;0.00
27143;PMS1003;14672;50.250;8.312;2023-11-19T05:54:51;5.00;3.00;0.00
27143;PMS1003;14672;50.250;8.312;2023-11-19T05:57:17;3.00;3.00;0.00
27143;PMS1003;14672;50.250;8.312;2023-11-19T05:59:49;3.00;3.00;0.00
27143;PMS1003;14672;50.250;8.312;2023-11-19T06:02:15;3.00;3.00;0.00
27143;PMS1003;14672;50.250;8.312;2023-11-19T06:04:41;3.00;3.00;0.00
27143;PMS1003;14672;50.250;8.312;2023-11-19T06:07:09;5.00;5.00;0.75
27143;PMS1003;14672;50.250;8.312;2023-11-19T06:09:35;5.00;5.00;1.00
27143;PMS1003;14672;50.250;8.312;2023-11-19T06:12:00;5.00;5.00;0.33
27143;PMS1003;14672;50.250;8.312;2023-11-19T06:14:31;3.00;3.00;0.00
27143;PMS1003;14672;50.250;8.312;2023-11-19T06:16:57;5.00;5.00;0.00
27143;PMS1003;14672;50.250;8.312;2023-11-19T06:19:22;5.00;5.00;0.33
27143;PMS1003;14672;50.250;8.312;2023-11-19T06:21:50;5.00;5.00;0.00
27143;PMS1003;14672;50.250;8.312;2023-11-19T06:24:16;6.00;6.00;0.00
27143;PMS1003;14672;50.250;8.312;2023-11-19T06:26:42;3.00;3.00;0.00
27143;PMS1003;14672;50.250;8.312;2023-11-19T06:29:08;4.00;4.00;0.00
27143;PMS1003;14672;50.250;8.312;2023-11-19T06:31:33;3.00;3.00;0.00
27143;PMS1003;14672;50.250;8.312;2023-11-19T06:33:59;5.00;5.00;0.00
27143;PMS1003;14672;50.250;8.312;2023-11-19T06:36:25;5.00;5.00;0.75
27143;PMS1003;14672;50.250;8.312;2023-11-19T06:38:51;5.00;5.00;0.25
27143;PMS1003;14672;50.250;8.312;2023-11-19T06:41:17;3.00;3.00;0.00
27143;PMS1003;14672;50.250;8.312;2023-11-19T06:43:43;3.00;3.00;0.00
27143;PMS1003;14672;50.250;8.312;2023-11-19T06:46:15;3.00;3.00;0.00
27143;PMS1003;14672;50.250;8.312;2023-11-19T06:48:42;5.00;5.00;0.25
27143;PMS1003;14672;50.250;8.312;2023-11-19T06:51:09;3.00;3.00;0.00
27143;PMS1003;14672;50.250;8.312;2023-11-19T06:53:36;6.75;5.25;0.25
27143;PMS1003;14672;50.250;8.312;2023-11-19T06:56:02;3.00;3.00;0.00
27143;PMS1003;14672;50.250;8.312;2023-11-19T06:58:31;4.50;4.50;0.50
27143;PMS1003;14672;50.250;8.312;2023-11-19T07:01:01;5.00;5.00;1.00
27143;PMS1003;14672;50.250;8.312;2023-11-19T07:03:26;4.33;4.33;0.00
27143;PMS1003;14672;50.250;8.312;2023-11-19T07:05:52;5.00;5.00;0.00
27143;PMS1003;14672;50.250;8.312;2023-11-19T07:08:18;3.00;3.00;0.00
27143;PMS1003;14672;50.250;8.312;2023-11-19T07:10:43;4.33;4.33;0.00
27143;PMS1003;14672;50.250;8.312;2023-11-19T07:13:12;5.00;5.00;0.00
27143;PMS1003;14672;50.250;8.312;2023-11-19T07:15:38;5.33;5.33;1.00
27143;PMS1003;14672;50.250;8.312;2023-11-19T07:18:03;3.67;3.67;0.00
27143;PMS1003;14672;50.250;8.312;2023-11-19T07:20:29;5.00;5.00;0.00
27143;PMS1003;14672;50.250;8.312;2023-11-19T07:22:56;8.00;6.75;1.00
27143;PMS1003;14672;50.250;8.312;2023-11-19T07:25:22;6.67;6.67;0.00
27143;PMS1003;14672;50.250;8.312;2023-11-19T07:27:48;5.25;5.25;0.00
27143;PMS1003;14672;50.250;8.312;2023-11-19T07:30:14;5.00;5.00;0.33
27143;PMS1003;14672;50.250;8.312;2023-11-19T07:32:40;8.33;7.00;1.00
27143;PMS1003;14672;50.250;8.312;2023-11-19T07:35:05;5.00;5.00;0.00
27143;PMS1003;14672;50.250;8.312;2023-11-19T07:37:32;5.25;5.25;0.50
27143;PMS1003;14672;50.250;8.312;2023-11-19T07:39:58;5.00;5.00;0.00
27143;PMS1003;14672;50.250;8.312;2023-11-19T07:42:23;6.67;6.67;1.00
27143;PMS1003;14672;50.250;8.312;2023-11-19T07:44:49;9.33;8.67;3.00
27143;PMS1003;14672;50.250;8.312;2023-11-19T07:47:15;10.00;9.33;3.67
27143;PMS1003;14672;50.250;8.312;2023-11-19T07:49:43;13.50;11.00;3.00
27143;PMS1003;14672;50.250;8.312;2023-11-19T07:52:09;8.00;8.00;2.33
27143;PMS1003;14672;50.250;8.312;2023-11-19T07:54:35;7.00;7.00;1.00
27143;PMS1003;14672;50.250;8.312;2023-11-19T07:57:00;5.00;5.00;1.00
27143;PMS1003;14672;50.250;8.312;2023-11-19T07:59:26;9.33;8.00;3.00
27143;PMS1003;14672;50.250;8.312;2023-11-19T08:01:52;7.00;7.00;1.00
27143;PMS1003;14672;50.250;8.312;2023-11-19T08:04:18;6.00;6.00;1.00
27143;PMS1003;14672;50.250;8.312;2023-11-19T08:06:43;10.00;8.00;2.33
27143;PMS1003;14672;50.250;8.312;2023-11-19T08:09:10;13.75;8.00;3.00
27143;PMS1003;14672;50.250;8.312;2023-11-19T08:11:40;6.00;6.00;1.00
27143;PMS1003;14672;50.250;8.312;2023-11-19T08:14:06;8.50;7.00;1.00
27143;PMS1003;14672;50.250;8.312;2023-11-19T08:16:33;10.25;6.75;1.00
27143;PMS1003;14672;50.250;8.312;2023-11-19T08:18:59;5.67;5.67;0.67
27143;PMS1003;14672;50.250;8.312;2023-11-19T08:21:25;7.00;7.00;1.00
27143;PMS1003;14672;50.250;8.312;2023-11-19T08:23:52;8.50;5.75;1.00
27143;PMS1003;14672;50.250;8.312;2023-11-19T08:26:17;5.00;5.00;1.00
27143;PMS1003;14672;50.250;8.312;2023-11-19T08:28:43;6.00;6.00;1.00
27143;PMS1003;14672;50.250;8.312;2023-11-19T08:31:09;6.00;6.00;0.67
27143;PMS1003;14672;50.250;8.312;2023-11-19T08:33:34;6.00;6.00;1.00
27143;PMS1003;14672;50.250;8.312;2023-11-19T08:36:00;10.33;8.00;1.00
27143;PMS1003;14672;50.250;8.312;2023-11-19T08:38:26;9.33;8.00;3.00
27143;PMS1003;14672;50.250;8.312;2023-11-19T08:40:52;8.00;8.00;1.00
27143;PMS1003;14672;50.250;8.312;2023-11-19T08:43:17;6.00;6.00;1.00
27143;PMS1003;14672;50.250;8.312;2023-11-19T08:45:43;8.00;7.33;1.00
27143;PMS1003;14672;50.250;8.312;2023-11-19T08:48:09;4.33;4.33;1.00
27143;PMS1003;14672;50.250;8.312;2023-11-19T08:50:35;13.00;9.00;1.00
27143;PMS1003;14672;50.250;8.312;2023-11-19T08:53:00;7.33;7.33;1.00
27143;PMS1003;14672;50.250;8.312;2023-11-19T08:55:26;9.00;8.00;1.00
27143;PMS1003;14672;50.250;8.312;2023-11-19T08:57:52;7.67;7.00;1.00
27143;PMS1003;14672;50.250;8.312;2023-11-19T09:00:17;7.00;7.00;1.00
27143;PMS1003;14672;50.250;8.312;2023-11-19T09:02:43;9.50;9.50;2.50
27143;PMS1003;14672;50.250;8.312;2023-11-19T09:05:09;7.33;7.00;1.00
27143;PMS1003;14672;50.250;8.312;2023-11-19T09:07:35;7.00;5.00;0.00
27143;PMS1003;14672;50.250;8.312;2023-11-19T09:10:01;7.00;7.00;1.00
27143;PMS1003;14672;50.250;8.312;2023-11-19T09:12:27;8.00;6.25;1.00
27143;PMS1003;14672;50.250;8.312;2023-11-19T09:14:52;9.00;6.33;1.00
27143;PMS1003;14672;50.250;8.312;2023-11-19T09:17:18;11.67;8.00;1.00
27143;PMS1003;14672;50.250;8.312;2023-11-19T09:19:44;10.00;8.00;2.00
27143;PMS1003;14672;50.250;8.312;2023-11-19T09:22:10;6.50;6.50;1.00
27143;PMS1003;14672;50.250;8.312;2023-11-19T09:24:36;6.33;4.67;1.00
27143;PMS1003;14672;50.250;8.312;2023-11-19T09:27:02;7.00;6.33;1.00
27143;PMS1003;14672;50.250;8.312;2023-11-19T09:29:30;7.75;7.00;1.00
27143;PMS1003;14672;50.250;8.312;2023-11-19T09:31:57;6.50;5.00;1.00
27143;PMS1003;14672;50.250;8.312;2023-11-19T09:34:23;13.00;7.67;2.00
27143;PMS1003;14672;50.250;8.312;2023-11-19T09:36:49;6.33;6.33;1.00
27143;PMS1003;14672;50.250;8.312;2023-11-19T09:39:18;6.50;6.50;1.00
27143;PMS1003;14672;50.250;8.312;2023-11-19T09:41:45;10.00;8.00;1.00
27143;PMS1003;14672;50.250;8.312;2023-11-19T09:44:11;6.50;6.50;1.00
27143;PMS1003;14672;50.250;8.312;2023-11-19T09:46:41;5.50;5.00;1.00
27143;PMS1003;14672;50.250;8.312;2023-11-19T09:49:08;7.50;6.50;1.00
27143;PMS1003;14672;50.250;8.312;2023-11-19T09:51:35;9.50;7.00;1.00
27143;PMS1003;14672;50.250;8.312;2023-11-19T09:54:01;8.00;7.25;1.25
27143;PMS1003;14672;50.250;8.312;2023-11-19T09:56:28;9.50;9.00;1.50
27143;PMS1003;14672;50.250;8.312;2023-11-19T09:58:55;10.00;7.50;1.00
27143;PMS1003;14672;50.250;8.312;2023-11-19T10:01:21;10.00;8.50;1.00
27143;PMS1003;14672;50.250;8.312;2023-11-19T10:03:47;7.67;7.00;0.00
27143;PMS1003;14672;50.250;8.312;2023-11-19T10:06:15;5.50;5.50;1.00
27143;PMS1003;14672;50.250;8.312;2023-11-19T10:08:41;7.00;7.00;1.00
27143;PMS1003;14672;50.250;8.312;2023-11-19T10:11:07;7.75;5.00;0.75
27143;PMS1003;14672;50.250;8.312;2023-11-19T10:13:37;10.00;7.75;1.00
27143;PMS1003;14672;50.250;8.312;2023-11-19T10:16:09;6.00;5.50;0.25
27143;PMS1003;14672;50.250;8.312;2023-11-19T10:18:39;9.00;8.00;1.75
27143;PMS1003;14672;50.250;8.312;2023-11-19T10:21:12;11.25;8.00;1.25
27143;PMS1003;14672;50.250;8.312;2023-11-19T10:26:17;9.50;7.25;1.00
27143;PMS1003;14672;50.250;8.312;2023-11-19T10:28:45;10.50;9.75;1.00
27143;PMS1003;14672;50.250;8.312;2023-11-19T10:31:15;6.50;6.50;1.00
27143;PMS1003;14672;50.250;8.312;2023-11-19T10:33:43;10.75;6.75;1.00
27143;PMS1003;14672;50.250;8.312;2023-11-19T10:36:13;7.75;6.75;1.00
27143;PMS1003;14672;50.250;8.312;2023-11-19T10:38:40;9.00;8.00;1.25
27143;PMS1003;14672;50.250;8.312;2023-11-19T10:41:25;7.75;7.75;1.00
27143;PMS1003;14672;50.250;8.312;2023-11-19T10:43:55;8.00;5.50;1.00
27143;PMS1003;14672;50.250;8.312;2023-11-19T10:46:22;8.00;5.75;1.00
27143;PMS1003;14672;50.250;8.312;2023-11-19T10:48:48;11.00;8.00;1.00
27143;PMS1003;14672;50.250;8.312;2023-11-19T10:51:18;6.75;6.00;2.00
27143;PMS1003;14672;50.250;8.312;2023-11-19T10:53:49;6.75;5.50;0.50
27143;PMS1003;14672;50.250;8.312;2023-11-19T10:56:16;7.25;6.25;2.00
27143;PMS1003;14672;50.250;8.312;2023-11-19T10:58:45;8.25;7.75;2.00
27143;PMS1003;14672;50.250;8.312;2023-11-19T11:01:13;8.75;7.50;1.00
27143;PMS1003;14672;50.250;8.312;2023-11-19T11:03:45;6.00;6.00;1.50
27143;PMS1003;14672;50.250;8.312;2023-11-19T11:06:12;6.00;5.50;1.00
27143;PMS1003;14672;50.250;8.312;2023-11-19T11:08:39;4.75;4.75;1.00
27143;PMS1003;14672;50.250;8.312;2023-11-19T11:11:05;8.75;6.50;2.00
27143;PMS1003;14672;50.250;8.312;2023-11-19T11:13:33;10.25;8.50;2.00
27143;PMS1003;14672;50.250;8.312;2023-11-19T11:15:59;12.00;8.50;1.00
27143;PMS1003;14672;50.250;8.312;2023-11-19T11:18:25;8.00;7.25;2.00
27143;PMS1003;14672;50.250;8.312;2023-11-19T11:20:52;9.25;8.50;2.00
27143;PMS1003;14672;50.250;8.312;2023-11-19T11:32:43;9.25;8.00;1.50
27143;PMS1003;14672;50.250;8.312;2023-11-19T11:38:09;7.00;7.00;2.00
27143;PMS1003;14672;50.250;8.312;2023-11-19T11:40:36;6.75;5.75;1.00
27143;PMS1003;14672;50.250;8.312;2023-11-19T11:43:02;9.00;9.00;1.00
27143;PMS1003;14672;50.250;8.312;2023-11-19T11:45:36;6.00;6.00;1.00
27143;PMS1003;14672;50.250;8.312;2023-11-19T11:48:11;11.75;9.75;2.00
27143;PMS1003;14672;50.250;8.312;2023-11-19T11:50:50;10.50;9.00;2.00
27143;PMS1003;14672;50.250;8.312;2023-11-19T11:53:19;7.00;7.00;1.50
27143;PMS1003;14672;50.250;8.312;2023-11-19T11:58:17;9.00;8.00;2.00
27143;PMS1003;14672;50.250;8.312;2023-11-19T12:00:50;6.00;5.25;1.00
27143;PMS1003;14672;50.250;8.312;2023-11-19T12:03:19;6.00;6.00;1.00
27143;PMS1003;14672;50.250;8.312;2023-11-19T12:05:47;5.00;5.00;1.00
27143;PMS1003;14672;50.250;8.312;2023-11-19T12:08:14;8.25;6.00;1.00
27143;PMS1003;14672;50.250;8.312;2023-11-19T12:10:49;8.25;6.75;2.00
27143;PMS1003;14672;50.250;8.312;2023-11-19T12:13:19;8.25;6.75;1.50
27143;PMS1003;14672;50.250;8.312;2023-11-19T12:18:29;8.25;8.00;2.50
27143;PMS1003;14672;50.250;8.312;2023-11-19T12:20:59;8.00;7.50;1.00
27143;PMS1003;14672;50.250;8.312;2023-11-19T12:23:27;11.50;10.50;2.00
27143;PMS1003;14672;50.250;8.312;2023-11-19T12:25:55;8.00;7.50;2.00
27143;PMS1003;14672;50.250;8.312;2023-11-19T12:28:22;12.75;11.75;2.00
27143;PMS1003;14672;50.250;8.312;2023-11-19T12:30:49;5.50;5.50;1.00
27143;PMS1003;14672;50.250;8.312;2023-11-19T12:33:16;7.00;6.00;1.00
27143;PMS1003;14672;50.250;8.312;2023-11-19T12:35:43;6.50;5.25;1.00
27143;PMS1003;14672;50.250;8.312;2023-11-19T12:40:46;8.00;8.00;1.25
27143;PMS1003;14672;50.250;8.312;2023-11-19T12:43:20;10.50;8.00;1.00
27143;PMS1003;14672;50.250;8.312;2023-11-19T12:45:47;5.50;5.50;1.00
27143;PMS1003;14672;50.250;8.312;2023-11-19T12:48:13;9.00;8.00;1.00
27143;PMS1003;14672;50.250;8.312;2023-11-19T12:50:52;9.00;6.67;1.00
27143;PMS1003;14672;50.250;8.312;2023-11-19T12:53:26;7.75;7.25;2.00
27143;PMS1003;14672;50.250;8.312;2023-11-19T12:55:53;7.50;7.50;1.00
27143;PMS1003;14672;50.250;8.312;2023-11-19T12:58:36;11.00;8.00;2.00
27143;PMS1003;14672;50.250;8.312;2023-11-19T13:03:29;5.25;5.00;1.00
27143;PMS1003;14672;50.250;8.312;2023-11-19T13:06:10;6.75;6.75;1.00
27143;PMS1003;14672;50.250;8.312;2023-11-19T13:08:38;5.00;5.00;1.25
27143;PMS1003;14672;50.250;8.312;2023-11-19T13:11:13;7.50;6.00;1.50
27143;PMS1003;14672;50.250;8.312;2023-11-19T13:13:59;7.00;7.00;1.00
27143;PMS1003;14672;50.250;8.312;2023-11-19T13:16:33;6.00;6.00;0.50
27143;PMS1003;14672;50.250;8.312;2023-11-19T13:19:02;5.00;5.00;1.00
27143;PMS1003;14672;50.250;8.312;2023-11-19T13:21:28;7.00;6.50;1.00
27143;PMS1003;14672;50.250;8.312;2023-11-19T13:23:55;4.75;4.75;1.00
27143;PMS1003;14672;50.250;8.312;2023-11-19T13:26:21;10.25;6.25;1.00
27143;PMS1003;14672;50.250;8.312;2023-11-19T13:28:48;6.50;6.50;1.00
27143;PMS1003;14672;50.250;8.312;2023-11-19T13:31:14;7.25;6.50;1.00
27143;PMS1003;14672;50.250;8.312;2023-11-19T13:33:40;11.00;7.00;1.33
27143;PMS1003;14672;50.250;8.312;2023-11-19T13:36:06;9.25;7.00;0.75
27143;PMS1003;14672;50.250;8.312;2023-11-19T13:38:34;5.50;5.50;1.00
27143;PMS1003;14672;50.250;8.312;2023-11-19T13:41:01;7.00;7.00;1.50
27143;PMS1003;14672;50.250;8.312;2023-11-19T13:43:30;7.50;6.50;1.00
27143;PMS1003;14672;50.250;8.312;2023-11-19T13:45:57;7.75;7.75;1.00
27143;PMS1003;14672;50.250;8.312;2023-11-19T13:48:23;8.25;8.00;1.75
27143;PMS1003;14672;50.250;8.312;2023-11-19T13:50:50;11.00;9.00;2.00
27143;PMS1003;14672;50.250;8.312;2023-11-19T13:53:16;6.50;5.00;1.00
27143;PMS1003;14672;50.250;8.312;2023-11-19T13:55:42;9.67;6.33;1.00
27143;PMS1003;14672;50.250;8.312;2023-11-19T13:58:08;6.75;6.00;1.00
27143;PMS1003;14672;50.250;8.312;2023-11-19T14:00:35;8.25;8.00;2.00
27143;PMS1003;14672;50.250;8.312;2023-11-19T14:03:02;5.25;5.00;1.00
27143;PMS1003;14672;50.250;8.312;2023-11-19T14:05:28;8.00;6.50;1.00
27143;PMS1003;14672;50.250;8.312;2023-11-19T14:07:54;7.00;7.00;1.00
27143;PMS1003;14672;50.250;8.312;2023-11-19T14:10:22;5.50;5.00;1.00
27143;PMS1003;14672;50.250;8.312;2023-11-19T14:12:48;8.25;8.25;1.00
27143;PMS1003;14672;50.250;8.312;2023-11-19T14:15:15;6.75;6.75;1.00
27143;PMS1003;14672;50.250;8.312;2023-11-19T14:17:47;6.75;6.75;2.00
27143;PMS1003;14672;50.250;8.312;2023-11-19T14:20:12;6.33;5.00;1.00
27143;PMS1003;14672;50.250;8.312;2023-11-19T14:22:42;8.00;8.00;2.00
27143;PMS1003;14672;50.250;8.312;2023-11-19T14:25:09;8.50;8.25;2.00
27143;PMS1003;14672;50.250;8.312;2023-11-19T14:27:39;7.00;5.00;1.00
27143;PMS1003;14672;50.250;8.312;2023-11-19T14:30:08;5.50;5.00;1.00
27143;PMS1003;14672;50.250;8.312;2023-11-19T14:32:39;8.25;7.25;1.75
27143;PMS1003;14672;50.250;8.312;2023-11-19T14:35:11;7.50;6.00;1.00
27143;PMS1003;14672;50.250;8.312;2023-11-19T14:37:37;6.50;6.50;1.00
27143;PMS1003;14672;50.250;8.312;2023-11-19T14:40:03;8.00;7.00;2.00
27143;PMS1003;14672;50.250;8.312;2023-11-19T14:42:30;7.25;6.50;1.00